createdAt,value
2022-08-04T00:02:07.461Z,1.65
2022-08-04T00:04:45.723Z,2.13
2022-08-04T00:07:19.221Z,1.83
2022-08-04T00:10:08.964Z,1.80
2022-08-04T00:12:45.263Z,1.52
2022-08-04T00:15:16.709Z,1.90
2022-08-04T00:17:47.004Z,1.50
2022-08-04T00:20:19.779Z,1.60
2022-08-04T00:22:49.279Z,1.90
2022-08-04T00:25:17.162Z,1.75
2022-08-04T00:27:47.077Z,1.80
2022-08-04T00:30:14.896Z,1.70
2022-08-04T00:32:43.357Z,1.60
2022-08-04T00:35:14.160Z,1.55
2022-08-04T00:37:45.372Z,1.83
2022-08-04T00:40:23.628Z,1.90
2022-08-04T00:43:00.302Z,1.50
2022-08-04T00:46:11.678Z,1.50
2022-08-04T00:49:14.154Z,1.50
2022-08-04T00:52:30.662Z,1.30
2022-08-04T00:54:48.280Z,1.55
2022-08-04T00:57:34.014Z,1.30
2022-08-04T01:00:10.848Z,1.70
2022-08-04T01:02:49.846Z,1.42
2022-08-04T01:05:22.786Z,1.52
2022-08-04T01:08:11.449Z,1.45
2022-08-04T01:10:54.926Z,1.50
2022-08-04T01:13:40.281Z,1.23
2022-08-04T01:16:11.886Z,1.15
2022-08-04T01:18:50.528Z,1.50
2022-08-04T01:21:43.335Z,1.15
2022-08-04T01:24:30.914Z,1.73
2022-08-04T01:27:04.133Z,1.33
2022-08-04T01:29:46.853Z,1.42
2022-08-04T01:32:25.661Z,1.20
2022-08-04T01:35:01.118Z,1.38
2022-08-04T01:37:46.345Z,1.30
2022-08-04T01:40:16.470Z,1.60
2022-08-04T01:42:46.216Z,1.50
2022-08-04T01:45:15.783Z,1.27
2022-08-04T01:47:49.678Z,1.40
2022-08-04T01:50:17.711Z,1.23
2022-08-04T01:52:50.891Z,1.73
2022-08-04T01:55:19.703Z,1.45
2022-08-04T01:57:49.041Z,1.55
2022-08-04T02:00:20.297Z,1.60
2022-08-04T02:02:48.967Z,1.40
2022-08-04T02:05:18.509Z,1.65
2022-08-04T02:08:00.598Z,1.73
2022-08-04T02:10:31.255Z,1.30
2022-08-04T02:13:11.867Z,1.20
2022-08-04T02:15:51.757Z,1.30
2022-08-04T02:18:25.152Z,1.50
2022-08-04T02:20:58.569Z,1.33
2022-08-04T02:23:32.056Z,1.27
2022-08-04T02:26:03.696Z,1.23
2022-08-04T02:28:36.461Z,1.15
2022-08-04T02:31:15.536Z,1.30
2022-08-04T02:33:46.041Z,0.95
2022-08-04T02:36:22.345Z,1.10
2022-08-04T02:38:57.539Z,1.15
2022-08-04T02:41:28.060Z,1.30
2022-08-04T02:43:58.335Z,1.10
2022-08-04T02:46:28.196Z,1.00
2022-08-04T02:48:56.378Z,1.33
2022-08-04T02:51:25.824Z,1.00
2022-08-04T02:53:56.202Z,1.20
2022-08-04T02:56:25.626Z,1.38
2022-08-04T02:59:01.992Z,1.25
2022-08-04T03:01:31.841Z,1.10
2022-08-04T03:04:27.541Z,1.23
2022-08-04T03:07:21.115Z,0.90
2022-08-04T03:10:29.463Z,1.10
2022-08-04T03:13:34.154Z,1.23
2022-08-04T03:16:36.678Z,0.82
2022-08-04T03:19:37.564Z,0.90
2022-08-04T03:22:34.055Z,1.05
2022-08-04T03:25:25.089Z,1.00
2022-08-04T03:28:20.008Z,0.90
2022-08-04T03:31:05.442Z,0.80
2022-08-04T03:33:45.454Z,0.90
2022-08-04T03:36:52.006Z,1.45
2022-08-04T03:39:47.734Z,1.08
2022-08-04T03:42:44.498Z,0.90
2022-08-04T03:45:45.390Z,1.17
2022-08-04T03:48:41.014Z,1.02
2022-08-04T03:51:42.787Z,1.17
2022-08-04T03:54:46.960Z,0.93
2022-08-04T03:57:37.578Z,0.88
2022-08-04T04:00:09.851Z,1.10
2022-08-04T04:02:55.134Z,1.07
2022-08-04T04:06:00.107Z,0.95
2022-08-04T04:09:03.548Z,1.30
2022-08-04T04:11:57.767Z,1.02
2022-08-04T04:14:49.870Z,1.00
2022-08-04T04:17:43.938Z,1.10
2022-08-04T04:20:27.976Z,1.00
2022-08-04T04:23:08.912Z,0.80
2022-08-04T04:25:56.874Z,0.88
2022-08-04T04:28:51.635Z,1.30
2022-08-04T04:31:36.113Z,1.15
2022-08-04T04:34:12.882Z,0.97
2022-08-04T04:36:50.717Z,1.40
2022-08-04T04:39:33.127Z,1.17
2022-08-04T04:42:13.974Z,0.88
2022-08-04T04:45:02.519Z,1.40
2022-08-04T04:48:08.815Z,1.05
2022-08-04T04:50:39.692Z,1.40
2022-08-04T04:53:18.267Z,1.47
2022-08-04T04:55:52.369Z,1.37
2022-08-04T04:58:23.299Z,1.52
2022-08-04T05:01:16.173Z,1.20
2022-08-04T05:04:08.465Z,1.37
2022-08-04T05:06:54.557Z,1.20
2022-08-04T05:09:47.369Z,1.00
2022-08-04T05:14:22.792Z,1.30
2022-08-04T05:15:33.091Z,1.50
2022-08-04T05:18:03.816Z,1.00
2022-08-04T05:20:39.845Z,0.95
2022-08-04T05:23:16.827Z,1.10
2022-08-04T05:25:58.638Z,1.30
2022-08-04T05:28:34.194Z,0.90
2022-08-04T05:31:07.213Z,1.10
2022-08-04T05:33:42.754Z,1.30
2022-08-04T05:36:29.497Z,1.17
2022-08-04T05:39:07.069Z,1.40
2022-08-04T05:41:45.819Z,1.20
2022-08-04T05:44:16.919Z,1.50
2022-08-04T05:46:54.071Z,1.20
2022-08-04T05:49:23.805Z,1.27
2022-08-04T05:51:53.749Z,1.20
2022-08-04T05:54:23.126Z,0.90
2022-08-04T05:56:52.133Z,1.10
2022-08-04T05:59:23.696Z,0.90
2022-08-04T06:01:55.877Z,1.40
2022-08-04T06:04:29.102Z,1.30
2022-08-04T06:06:58.515Z,1.20
2022-08-04T06:09:26.332Z,1.53
2022-08-04T06:12:02.080Z,1.10
2022-08-04T06:14:36.875Z,1.10
2022-08-04T06:18:32.126Z,1.00
2022-08-04T06:20:19.756Z,1.00
2022-08-04T06:22:48.533Z,1.50
2022-08-04T06:25:20.513Z,1.37
2022-08-04T06:27:50.088Z,1.20
2022-08-04T06:30:19.594Z,1.38
2022-08-04T06:33:03.814Z,1.57
2022-08-04T06:35:34.454Z,1.02
2022-08-04T06:38:04.385Z,1.10
2022-08-04T06:40:34.651Z,1.00
2022-08-04T06:43:04.679Z,1.50
2022-08-04T06:45:34.477Z,1.23
2022-08-04T06:48:03.615Z,1.13
2022-08-04T06:51:27.120Z,1.53
2022-08-04T06:53:20.846Z,1.65
2022-08-04T06:55:50.372Z,0.98
2022-08-04T06:58:20.317Z,1.00
2022-08-04T07:00:49.500Z,1.30
2022-08-04T07:03:19.075Z,1.35
2022-08-04T07:05:48.404Z,1.30
2022-08-04T07:08:16.695Z,1.27
2022-08-04T07:10:46.360Z,1.17
2022-08-04T07:13:14.520Z,1.10
2022-08-04T07:15:44.932Z,1.00
2022-08-04T07:18:12.941Z,1.50
2022-08-04T07:20:42.846Z,1.30
2022-08-04T07:23:13.772Z,1.17
2022-08-04T07:26:00.425Z,1.30
2022-08-04T07:28:31.826Z,1.37
2022-08-04T07:31:00.024Z,0.90
2022-08-04T07:33:29.425Z,1.20
2022-08-04T07:36:09.461Z,1.35
2022-08-04T07:38:46.377Z,1.20
2022-08-04T07:41:39.374Z,1.10
2022-08-04T07:44:09.546Z,0.83
2022-08-04T07:46:38.185Z,1.10
2022-08-04T07:49:06.816Z,1.13
2022-08-04T07:51:37.726Z,1.38
2022-08-04T07:54:07.717Z,1.30
2022-08-04T07:56:37.265Z,1.40
2022-08-04T07:59:06.255Z,1.38
2022-08-04T08:01:37.006Z,1.20
2022-08-04T08:04:08.504Z,1.30
2022-08-04T08:06:42.663Z,1.05
2022-08-04T08:09:14.595Z,1.30
2022-08-04T08:12:36.855Z,1.20
2022-08-04T08:14:32.280Z,1.45
2022-08-04T08:17:02.971Z,1.00
2022-08-04T08:19:31.440Z,1.27
2022-08-04T08:22:00.902Z,0.95
2022-08-04T08:24:30.187Z,1.10
2022-08-04T08:26:58.495Z,0.93
2022-08-04T08:29:27.965Z,1.15
2022-08-04T08:32:01.501Z,1.13
2022-08-04T08:34:34.830Z,1.05
2022-08-04T08:37:08.921Z,1.08
2022-08-04T08:39:40.864Z,1.20
2022-08-04T08:42:33.636Z,1.20
2022-08-04T08:45:42.706Z,1.42
2022-08-04T08:48:42.071Z,1.00
2022-08-04T08:51:31.756Z,1.50
2022-08-04T08:54:26.084Z,1.20
2022-08-04T08:57:04.112Z,0.95
2022-08-04T08:59:48.413Z,1.30
2022-08-04T09:03:04.807Z,0.98
2022-08-04T09:05:50.088Z,0.80
2022-08-04T09:08:42.416Z,1.08
2022-08-04T09:11:13.662Z,0.98
2022-08-04T09:13:46.961Z,0.80
2022-08-04T09:16:20.503Z,0.75
2022-08-04T09:18:53.939Z,0.93
2022-08-04T09:21:30.937Z,1.13
2022-08-04T09:24:35.348Z,0.70
2022-08-04T09:27:01.257Z,1.17
2022-08-04T09:29:37.475Z,1.10
2022-08-04T09:32:11.570Z,0.90
2022-08-04T09:35:03.534Z,0.82
2022-08-04T09:37:46.147Z,1.00
2022-08-04T09:40:31.656Z,0.82
2022-08-04T09:43:21.247Z,1.10
2022-08-04T09:45:59.954Z,0.80
2022-08-04T09:48:36.587Z,0.75
2022-08-04T09:51:15.462Z,0.70
2022-08-04T09:53:54.721Z,0.80
2022-08-04T09:56:31.807Z,0.80
2022-08-04T09:59:11.584Z,0.77
2022-08-04T10:01:43.862Z,0.80
2022-08-04T10:04:17.790Z,0.88
2022-08-04T10:07:03.845Z,0.80
2022-08-04T10:10:02.553Z,0.80
2022-08-04T10:12:44.905Z,0.70
2022-08-04T10:15:17.693Z,0.80
2022-08-04T10:18:10.866Z,1.00
2022-08-04T10:20:59.125Z,0.82
2022-08-04T10:23:56.225Z,0.85
2022-08-04T10:26:34.364Z,1.00
2022-08-04T10:29:08.010Z,1.00
2022-08-04T10:31:40.553Z,0.90
2022-08-04T10:34:13.852Z,0.70
2022-08-04T10:36:50.857Z,1.13
2022-08-04T10:39:42.323Z,1.10
2022-08-04T10:42:29.578Z,0.90
2022-08-04T10:45:15.175Z,0.98
2022-08-04T10:47:53.437Z,0.95
2022-08-04T10:50:24.688Z,1.05
2022-08-04T10:52:59.477Z,1.17
2022-08-04T10:56:07.845Z,0.80
2022-08-04T10:58:47.587Z,0.80
2022-08-04T11:02:00.963Z,0.80
2022-08-04T11:04:27.095Z,0.90
2022-08-04T11:06:56.474Z,1.00
2022-08-04T11:09:24.555Z,0.90
2022-08-04T11:12:00.955Z,0.80
2022-08-04T11:14:34.538Z,1.10
2022-08-04T11:17:08.581Z,1.10
2022-08-04T11:19:46.241Z,0.70
2022-08-04T11:22:26.021Z,0.88
2022-08-04T11:25:01.874Z,1.05
2022-08-04T11:27:36.697Z,0.90
2022-08-04T11:30:06.434Z,0.65
2022-08-04T11:32:44.104Z,0.93
2022-08-04T11:35:22.751Z,0.80
2022-08-04T11:38:02.384Z,0.90
2022-08-04T11:40:37.984Z,1.10
2022-08-04T11:43:10.802Z,0.80
2022-08-04T11:45:42.184Z,0.80
2022-08-04T11:48:18.282Z,0.90
2022-08-04T11:50:53.408Z,1.00
2022-08-04T11:53:24.947Z,1.00
2022-08-04T11:56:06.992Z,0.80
2022-08-04T11:58:36.246Z,1.08
2022-08-04T12:01:12.073Z,0.90
2022-08-04T12:03:59.702Z,0.80
2022-08-04T12:06:38.379Z,0.70
2022-08-04T12:09:12.605Z,0.70
2022-08-04T12:11:56.335Z,0.73
2022-08-04T12:14:33.742Z,0.77
2022-08-04T12:17:03.349Z,0.90
2022-08-04T12:19:57.068Z,1.00
2022-08-04T12:22:28.343Z,0.77
2022-08-04T12:25:03.996Z,0.70
2022-08-04T12:27:36.355Z,0.90
2022-08-04T12:30:59.488Z,0.98
2022-08-04T12:33:00.583Z,0.70
2022-08-04T12:35:35.146Z,0.90
2022-08-04T12:38:06.550Z,0.70
2022-08-04T12:40:40.599Z,0.80
2022-08-04T12:43:16.147Z,0.73
2022-08-04T12:45:48.832Z,1.10
2022-08-04T12:48:21.048Z,1.10
2022-08-04T12:50:52.774Z,1.00
2022-08-04T12:53:31.933Z,1.00
2022-08-04T12:56:02.570Z,1.00
2022-08-04T12:58:43.541Z,0.90
2022-08-04T13:02:07.365Z,1.98
2022-08-04T13:04:12.601Z,1.20
2022-08-04T13:06:43.092Z,1.10
2022-08-04T13:09:17.625Z,1.20
2022-08-04T13:11:51.581Z,0.98
2022-08-04T13:14:28.171Z,1.00
2022-08-04T13:17:00.113Z,1.10
2022-08-04T13:19:28.969Z,1.30
2022-08-04T13:22:03.336Z,1.52
2022-08-04T13:24:41.640Z,1.40
2022-08-04T13:27:23.305Z,1.20
2022-08-04T13:29:57.745Z,1.30
2022-08-04T13:32:30.820Z,1.60
2022-08-04T13:35:02.177Z,0.95
2022-08-04T13:37:37.136Z,1.10
2022-08-04T13:40:07.489Z,1.10
2022-08-04T13:42:37.424Z,0.88
2022-08-04T13:45:08.310Z,0.90
2022-08-04T13:47:40.169Z,0.77
2022-08-04T13:50:16.571Z,0.85
2022-08-04T13:52:47.009Z,1.13
2022-08-04T13:55:27.068Z,1.10
2022-08-04T13:57:59.396Z,0.90
2022-08-04T14:00:38.501Z,1.00
2022-08-04T14:03:22.969Z,0.90
2022-08-04T14:06:16.043Z,0.80
2022-08-04T14:08:54.174Z,0.90
2022-08-04T14:12:06.901Z,0.80
2022-08-04T14:14:21.357Z,0.88
2022-08-04T14:17:01.493Z,0.80
2022-08-04T14:19:35.969Z,1.05
2022-08-04T14:22:04.349Z,0.77
2022-08-04T14:24:33.515Z,1.05
2022-08-04T14:27:01.561Z,1.20
2022-08-04T14:29:38.152Z,1.00
2022-08-04T14:32:13.856Z,1.15
2022-08-04T14:34:45.110Z,1.10
2022-08-04T14:37:18.196Z,1.00
2022-08-04T14:40:07.963Z,1.02
2022-08-04T14:42:42.162Z,1.08
2022-08-04T14:45:11.035Z,0.98
2022-08-04T14:47:52.566Z,1.00
2022-08-04T14:50:21.297Z,1.00
2022-08-04T14:52:49.100Z,1.10
2022-08-04T14:55:20.551Z,1.10
2022-08-04T14:58:36.059Z,0.80
2022-08-04T15:00:37.931Z,1.05
2022-08-04T15:03:09.088Z,0.75
2022-08-04T15:05:59.929Z,0.80
2022-08-04T15:08:30.989Z,1.02
2022-08-04T15:11:03.271Z,0.93
2022-08-04T15:13:32.615Z,0.90
2022-08-04T15:16:00.946Z,1.00
2022-08-04T15:18:36.052Z,1.10
2022-08-04T15:21:05.638Z,1.20
2022-08-04T15:23:39.703Z,0.88
2022-08-04T15:26:13.813Z,0.80
2022-08-04T15:28:45.209Z,0.80
2022-08-04T15:32:06.580Z,0.88
2022-08-04T15:34:03.091Z,1.20
2022-08-04T15:36:39.099Z,0.95
2022-08-04T15:39:18.732Z,1.05
2022-08-04T15:41:57.713Z,0.90
2022-08-04T15:45:04.860Z,0.98
2022-08-04T15:47:33.232Z,1.17
2022-08-04T15:50:07.180Z,0.98
2022-08-04T15:53:10.281Z,0.75
2022-08-04T15:55:44.080Z,0.90
2022-08-04T15:58:14.974Z,0.77
2022-08-04T16:01:17.972Z,1.25
2022-08-04T16:03:55.382Z,0.70
2022-08-04T16:06:47.249Z,0.80
2022-08-04T16:09:46.371Z,0.98
2022-08-04T16:12:54.140Z,0.90
2022-08-04T16:15:46.734Z,1.00
2022-08-04T16:18:26.088Z,0.95
2022-08-04T16:20:57.585Z,0.90
2022-08-04T16:24:02.194Z,0.98
2022-08-04T16:26:46.139Z,0.80
2022-08-04T16:29:29.427Z,0.75
2022-08-04T16:32:16.477Z,1.00
2022-08-04T16:34:54.343Z,0.70
2022-08-04T16:37:26.073Z,1.02
2022-08-04T16:40:34.532Z,0.70
2022-08-04T16:43:04.527Z,0.98
2022-08-04T16:45:50.421Z,0.80
2022-08-04T16:48:20.966Z,0.90
2022-08-04T16:50:54.192Z,0.70
2022-08-04T16:53:51.950Z,0.90
2022-08-04T16:56:14.317Z,0.98
2022-08-04T16:58:53.007Z,0.80
2022-08-04T17:01:32.666Z,0.93
2022-08-04T17:04:06.616Z,0.80
2022-08-04T17:06:36.800Z,1.00
2022-08-04T17:09:06.654Z,0.68
2022-08-04T17:11:34.529Z,0.70
2022-08-04T17:14:05.893Z,0.80
2022-08-04T17:16:38.772Z,0.82
2022-08-04T17:19:24.333Z,0.90
2022-08-04T17:22:02.411Z,0.63
2022-08-04T17:24:32.463Z,0.80
2022-08-04T17:27:00.511Z,1.13
2022-08-04T17:29:43.854Z,1.00
2022-08-04T17:32:18.643Z,1.00
2022-08-04T17:34:52.289Z,1.92
2022-08-04T17:37:40.869Z,1.23
2022-08-04T17:40:16.100Z,0.88
2022-08-04T17:42:46.575Z,0.95
2022-08-04T17:45:49.431Z,0.98
2022-08-04T17:48:10.123Z,1.00
2022-08-04T17:50:43.347Z,0.90
2022-08-04T17:53:14.642Z,0.90
2022-08-04T17:55:49.788Z,0.75
2022-08-04T17:58:21.573Z,0.70
2022-08-04T18:00:52.013Z,0.90
2022-08-04T18:03:30.371Z,0.88
2022-08-04T18:06:12.572Z,0.90
2022-08-04T18:08:45.776Z,0.85
2022-08-04T18:11:21.295Z,0.77
2022-08-04T18:13:57.254Z,0.80
2022-08-04T18:16:25.291Z,0.82
2022-08-04T18:19:15.196Z,0.90
2022-08-04T18:21:59.528Z,1.00
2022-08-04T18:24:35.274Z,1.02
2022-08-04T18:27:18.714Z,0.70
2022-08-04T18:32:34.804Z,0.80
2022-08-04T18:35:05.789Z,0.88
2022-08-04T18:38:11.491Z,0.93
2022-08-04T18:40:40.566Z,0.88
2022-08-04T18:43:18.153Z,1.50
2022-08-04T18:45:59.481Z,1.27
2022-08-04T18:48:36.107Z,1.08
2022-08-04T18:51:10.710Z,1.17
2022-08-04T18:53:55.314Z,1.13
2022-08-04T18:56:29.817Z,1.00
2022-08-04T18:59:00.036Z,1.02
2022-08-04T19:01:29.977Z,1.00
2022-08-04T19:04:33.864Z,0.95
2022-08-04T19:07:29.083Z,1.25
2022-08-04T19:09:57.766Z,1.00
2022-08-04T19:12:32.521Z,1.30
2022-08-04T19:15:08.789Z,1.15
2022-08-04T19:17:53.532Z,1.20
2022-08-04T19:20:26.593Z,1.17
2022-08-04T19:24:28.060Z,1.00
2022-08-04T19:26:02.938Z,0.90
2022-08-04T19:28:36.057Z,1.00
2022-08-04T19:31:05.677Z,0.80
2022-08-04T19:33:55.333Z,1.00
2022-08-04T19:36:27.600Z,0.88
2022-08-04T19:38:56.823Z,1.05
2022-08-04T19:41:26.790Z,1.10
2022-08-04T19:43:55.087Z,1.52
2022-08-04T19:46:24.708Z,1.10
2022-08-04T19:48:58.881Z,1.20
2022-08-04T19:51:28.047Z,0.60
2022-08-04T19:54:02.291Z,0.80
2022-08-04T19:59:24.879Z,0.80
2022-08-04T20:01:52.947Z,0.90
2022-08-04T20:04:22.585Z,1.20
2022-08-04T20:06:53.844Z,0.80
2022-08-04T20:09:26.754Z,1.23
2022-08-04T20:11:56.714Z,1.42
2022-08-04T20:17:13.087Z,1.10
2022-08-04T20:19:51.258Z,1.07
2022-08-04T20:22:51.249Z,1.20
2022-08-04T20:25:18.193Z,1.03
2022-08-04T20:28:01.163Z,1.40
2022-08-04T20:30:29.661Z,1.47
2022-08-04T20:32:57.418Z,1.50
2022-08-04T20:35:27.854Z,1.30
2022-08-04T20:38:00.762Z,1.20
2022-08-04T20:40:30.091Z,1.40
2022-08-04T20:45:56.657Z,1.63
2022-08-04T20:48:29.345Z,1.67
2022-08-04T20:51:01.381Z,1.47
2022-08-04T20:53:32.472Z,1.40
2022-08-04T20:56:19.179Z,1.37
2022-08-04T20:59:00.016Z,1.67
2022-08-04T21:01:30.723Z,1.20
2022-08-04T21:04:27.648Z,1.30
2022-08-04T21:06:56.325Z,1.60
2022-08-04T21:09:26.721Z,1.40
2022-08-04T21:12:07.350Z,1.40
2022-08-04T21:14:36.050Z,1.43
2022-08-04T21:17:07.386Z,1.37
2022-08-04T21:19:36.654Z,1.77
2022-08-04T21:22:10.432Z,1.92
2022-08-04T21:24:38.970Z,1.95
2022-08-04T21:27:09.867Z,1.57
2022-08-04T21:29:38.029Z,1.80
2022-08-04T21:32:09.608Z,1.93
2022-08-04T21:34:39.886Z,1.85
2022-08-04T21:37:09.436Z,1.77
2022-08-04T21:39:50.005Z,1.70
2022-08-04T21:42:42.236Z,1.60
2022-08-04T21:45:08.237Z,1.50
2022-08-04T21:47:46.754Z,1.60
2022-08-04T21:50:20.029Z,1.90
2022-08-04T21:52:49.079Z,1.63
2022-08-04T21:55:17.521Z,1.43
2022-08-04T21:57:46.911Z,1.67
2022-08-04T22:00:18.446Z,1.70
2022-08-04T22:02:52.909Z,1.97
2022-08-04T22:05:21.845Z,1.60
2022-08-04T22:07:50.483Z,1.43
2022-08-04T22:13:07.984Z,1.77
2022-08-04T22:16:04.735Z,1.53
2022-08-04T22:18:27.535Z,1.70
2022-08-04T22:20:55.842Z,1.70
2022-08-04T22:23:25.224Z,1.93
2022-08-04T22:25:55.858Z,1.90
2022-08-04T22:28:28.742Z,1.57
2022-08-04T22:30:57.294Z,1.53
2022-08-04T22:33:54.350Z,1.50
2022-08-04T22:36:15.456Z,1.37
2022-08-04T22:38:48.681Z,1.63
2022-08-04T22:41:21.107Z,1.60
2022-08-04T22:43:54.901Z,1.37
2022-08-04T22:46:24.788Z,1.50
2022-08-04T22:48:54.521Z,1.40
2022-08-04T22:51:23.128Z,1.30
2022-08-04T22:53:51.954Z,1.43
2022-08-04T22:56:37.954Z,1.57
2022-08-04T22:59:10.916Z,1.87
2022-08-04T23:01:59.734Z,1.40
2022-08-04T23:04:29.495Z,1.50
2022-08-04T23:06:57.408Z,1.50
2022-08-04T23:09:49.502Z,1.63
2022-08-04T23:12:28.901Z,1.40
2022-08-04T23:14:58.233Z,1.03
2022-08-04T23:17:28.142Z,1.30
2022-08-04T23:19:59.929Z,1.57
2022-08-04T23:22:37.073Z,1.60
2022-08-04T23:25:15.818Z,1.73
2022-08-04T23:27:50.716Z,1.37
2022-08-04T23:30:21.529Z,1.90
2022-08-04T23:32:50.007Z,1.50
2022-08-04T23:35:22.154Z,1.30
2022-08-04T23:37:56.517Z,1.63
2022-08-04T23:40:32.364Z,1.40
2022-08-04T23:43:16.989Z,1.13
2022-08-04T23:46:04.526Z,1.30
2022-08-04T23:48:34.159Z,1.40
2022-08-04T23:51:14.512Z,1.40
2022-08-04T23:54:02.172Z,1.33
2022-08-04T23:56:32.230Z,1.40
2022-08-04T23:59:00.521Z,1.17
